Time;durP1;ratioP1;P1;durP2;ratioP2;P2;SDS_P1;SDS_P2;PMS_P1;PMS_P2;Temp;Humidity;BMP_temperature;BMP_pressure;BME280_temperature;BME280_humidity;BME280_pressure;Samples;Min_cycle;Max_cycle;Signal;HPM_P1;HPM_P2
2022/03/04 00:01:16;;;;;;;55.58;42.53;;;25.90;87.20;;;;;;1830723;77;21137;-85
2022/03/04 00:03:49;;;;;;;49.50;41.63;;;25.90;87.50;;;;;;1827389;77;21168;-85
2022/03/04 00:06:20;;;;;;;50.58;41.60;;;25.90;87.10;;;;;;1824071;77;21218;-85
2022/03/04 00:08:52;;;;;;;53.40;41.65;;;25.90;87.30;;;;;;1847348;77;21135;-86
2022/03/04 00:11:22;;;;;;;53.65;42.62;;;25.90;87.30;;;;;;1825588;77;21158;-83
2022/03/04 00:13:53;;;;;;;51.13;42.00;;;25.90;87.30;;;;;;1849446;77;21171;-84
2022/03/04 00:16:24;;;;;;;55.43;43.75;;;25.90;88.00;;;;;;1835324;77;21225;-84
2022/03/04 00:21:27;;;;;;;59.83;43.28;;;25.90;87.90;;;;;;1826848;77;21642;-84
2022/03/04 00:23:58;;;;;;;54.83;44.45;;;25.90;87.90;;;;;;1832698;77;21548;-84
2022/03/04 00:26:30;;;;;;;54.85;40.78;;;25.90;87.70;;;;;;1836858;77;21206;-86
2022/03/04 00:29:01;;;;;;;55.00;43.68;;;25.90;86.40;;;;;;1828985;77;21665;-86
2022/03/04 00:31:32;;;;;;;52.53;42.13;;;25.90;87.50;;;;;;1835456;77;21143;-86
2022/03/04 00:34:06;;;;;;;54.60;41.98;;;26.00;88.10;;;;;;1842890;77;21123;-86
2022/03/04 00:36:38;;;;;;;54.20;42.35;;;26.00;88.40;;;;;;1827846;77;21158;-85
2022/03/04 00:39:11;;;;;;;52.27;42.15;;;25.90;88.30;;;;;;1793001;79;21174;-85
2022/03/04 00:41:43;;;;;;;52.55;41.85;;;26.00;87.40;;;;;;1840397;77;21223;-86
2022/03/04 00:44:14;;;;;;;57.00;40.65;;;26.00;88.20;;;;;;1823461;77;21132;-86
2022/03/04 00:46:45;;;;;;;54.75;42.80;;;25.90;88.60;;;;;;1840142;77;21258;-85
2022/03/04 00:49:15;;;;;;;53.08;42.05;;;25.90;88.30;;;;;;1836210;77;21161;-86
2022/03/04 00:51:46;;;;;;;53.98;41.37;;;25.90;87.80;;;;;;1834660;77;21534;-85
2022/03/04 00:54:17;;;;;;;50.73;40.80;;;26.00;88.00;;;;;;1829676;77;21293;-86
2022/03/04 00:56:48;;;;;;;50.60;40.25;;;26.00;87.50;;;;;;1829172;77;21151;-85
2022/03/04 00:59:19;;;;;;;51.25;41.08;;;26.00;87.80;;;;;;1841113;77;21148;-85
2022/03/04 01:01:49;;;;;;;53.25;41.65;;;26.10;87.20;;;;;;1836320;77;21128;-85
2022/03/04 01:04:20;;;;;;;58.73;46.00;;;26.10;87.20;;;;;;1841018;77;21191;-85
2022/03/04 01:06:51;;;;;;;51.42;42.00;;;26.10;87.20;;;;;;1841422;77;21206;-85
2022/03/04 01:09:22;;;;;;;48.30;38.02;;;26.20;87.70;;;;;;1835552;77;21112;-85
2022/03/04 01:11:53;;;;;;;51.30;38.98;;;26.20;87.30;;;;;;1832182;77;21614;-85
2022/03/04 01:14:23;;;;;;;46.37;39.40;;;26.20;86.90;;;;;;1777665;79;21529;-86
2022/03/04 01:16:54;;;;;;;50.10;39.25;;;26.20;86.90;;;;;;1785121;79;21661;-85
2022/03/04 01:19:25;;;;;;;45.85;37.93;;;26.20;86.80;;;;;;1864555;76;21208;-85
2022/03/04 01:21:56;;;;;;;44.95;36.50;;;26.30;86.80;;;;;;1853486;76;21217;-86
2022/03/04 01:24:26;;;;;;;49.45;38.42;;;26.30;86.40;;;;;;1851464;76;21231;-86
2022/03/04 01:26:57;;;;;;;42.85;35.98;;;26.40;86.60;;;;;;1850125;76;21187;-86
2022/03/04 01:29:28;;;;;;;49.58;37.75;;;26.40;85.90;;;;;;1853568;76;21142;-84
2022/03/04 01:31:58;;;;;;;50.38;35.95;;;26.50;85.10;;;;;;1860407;75;21669;-85
2022/03/04 01:34:29;;;;;;;45.88;35.17;;;26.50;85.40;;;;;;1851063;75;21068;-88
2022/03/04 01:37:00;;;;;;;40.43;35.73;;;26.60;85.80;;;;;;1854528;76;21677;-85
2022/03/04 01:39:31;;;;;;;44.27;36.08;;;26.60;85.50;;;;;;1864090;76;21614;-85
2022/03/04 01:42:03;;;;;;;47.60;35.35;;;26.70;85.20;;;;;;1856615;76;21670;-73
2022/03/04 01:44:34;;;;;;;46.00;35.92;;;26.70;84.50;;;;;;1853559;76;21129;-72
2022/03/04 01:47:05;;;;;;;45.52;35.55;;;26.70;85.30;;;;;;1865327;76;21170;-70
2022/03/04 01:49:36;;;;;;;49.15;35.65;;;26.80;85.40;;;;;;1863357;76;21146;-71
2022/03/04 01:52:08;;;;;;;47.45;35.43;;;26.90;85.50;;;;;;1848841;76;21701;-72
2022/03/04 01:54:39;;;;;;;42.05;35.38;;;26.90;85.40;;;;;;1849757;76;21138;-73
2022/03/04 01:57:10;;;;;;;42.58;34.45;;;26.90;85.10;;;;;;1838299;76;21107;-73
2022/03/04 01:59:41;;;;;;;44.80;35.33;;;27.00;85.10;;;;;;1837644;76;21529;-73
2022/03/04 02:02:12;;;;;;;46.73;36.33;;;27.00;85.10;;;;;;1854267;76;21131;-74
2022/03/04 02:04:44;;;;;;;44.93;34.27;;;27.10;85.10;;;;;;1846479;76;21701;-74
2022/03/04 02:07:14;;;;;;;41.30;33.05;;;27.10;84.80;;;;;;1844061;76;21135;-74
2022/03/04 02:09:45;;;;;;;38.28;31.60;;;27.20;84.60;;;;;;1852286;76;21171;-73
2022/03/04 02:12:16;;;;;;;38.67;31.82;;;27.20;84.10;;;;;;1834580;75;21644;-74
2022/03/04 02:14:47;;;;;;;39.95;32.85;;;27.30;84.10;;;;;;1851459;76;21139;-73
2022/03/04 02:17:17;;;;;;;35.48;31.07;;;27.40;83.80;;;;;;1847559;76;21124;-73
2022/03/04 02:19:50;;;;;;;43.95;31.97;;;27.40;83.60;;;;;;1853624;76;22240;-73
2022/03/04 02:22:22;;;;;;;37.90;30.02;;;27.50;83.70;;;;;;1851054;76;21202;-73
2022/03/04 02:24:52;;;;;;;38.28;30.57;;;27.50;83.40;;;;;;1852214;76;21630;-73
2022/03/04 02:27:23;;;;;;;40.05;30.60;;;27.60;83.50;;;;;;1849167;75;21666;-73
2022/03/04 02:29:54;;;;;;;38.92;30.37;;;27.70;82.90;;;;;;1852192;76;21552;-73
2022/03/04 02:32:25;;;;;;;33.83;28.98;;;27.70;82.50;;;;;;1849330;75;21221;-73
2022/03/04 02:34:56;;;;;;;34.30;29.18;;;27.70;82.00;;;;;;1848836;76;21214;-73
2022/03/04 02:37:27;;;;;;;37.42;30.15;;;27.70;81.90;;;;;;1849390;76;21603;-74
2022/03/04 02:39:58;;;;;;;37.10;30.50;;;27.70;81.90;;;;;;1843933;75;21664;-74
2022/03/04 02:42:29;;;;;;;40.98;31.55;;;27.80;82.10;;;;;;1851952;76;21191;-72
2022/03/04 02:45:00;;;;;;;42.33;31.17;;;27.90;83.40;;;;;;1843152;76;21599;-72
2022/03/04 02:47:30;;;;;;;40.58;30.80;;;28.00;82.30;;;;;;1843857;76;21453;-72
2022/03/04 02:50:01;;;;;;;40.63;30.02;;;28.00;81.90;;;;;;1849870;76;21662;-72
2022/03/04 02:52:32;;;;;;;38.65;32.50;;;28.10;81.80;;;;;;1848426;76;21143;-72
2022/03/04 02:55:03;;;;;;;36.13;30.45;;;28.10;81.50;;;;;;1845961;76;21627;-72
2022/03/04 02:57:34;;;;;;;40.83;29.98;;;28.20;81.20;;;;;;1842793;76;21174;-72
2022/03/04 03:00:05;;;;;;;49.67;27.37;;;28.30;80.80;;;;;;1853126;76;21075;-72
2022/03/04 03:02:36;;;;;;;40.95;27.95;;;28.40;80.30;;;;;;1847371;75;21183;-72
2022/03/04 03:05:07;;;;;;;37.42;28.07;;;28.40;80.00;;;;;;1850667;76;21162;-70
2022/03/04 03:07:38;;;;;;;33.95;27.42;;;28.50;79.60;;;;;;1847526;76;21846;-71
2022/03/04 03:10:10;;;;;;;34.65;27.42;;;28.60;78.90;;;;;;1850164;76;21641;-72
2022/03/04 03:12:42;;;;;;;39.92;27.27;;;28.60;78.90;;;;;;1846640;76;21606;-73
2022/03/04 03:15:15;;;;;;;35.17;26.68;;;28.60;79.10;;;;;;1858538;76;21162;-72
2022/03/04 03:17:46;;;;;;;31.05;26.20;;;28.70;78.80;;;;;;1849324;76;21680;-71
2022/03/04 03:20:17;;;;;;;31.45;26.12;;;28.80;78.30;;;;;;1842408;76;21183;-72
2022/03/04 03:22:48;;;;;;;36.23;25.55;;;28.90;78.00;;;;;;1848652;76;21638;-72
2022/03/04 03:25:19;;;;;;;43.75;26.45;;;29.10;77.60;;;;;;1858936;76;21150;-71
2022/03/04 03:27:50;;;;;;;33.67;25.85;;;29.20;76.60;;;;;;1850801;76;21194;-69
2022/03/04 03:30:21;;;;;;;32.90;25.48;;;29.30;76.50;;;;;;1852352;76;21084;-72
2022/03/04 03:32:52;;;;;;;34.08;26.27;;;29.40;76.00;;;;;;1847012;76;21127;-72
2022/03/04 03:35:23;;;;;;;36.33;26.45;;;29.40;75.80;;;;;;1846058;76;21056;-73
2022/03/04 03:37:53;;;;;;;47.78;26.68;;;29.50;75.40;;;;;;1836776;76;21607;-73
2022/03/04 03:40:25;;;;;;;36.93;26.82;;;29.60;74.00;;;;;;1839463;76;21167;-73
2022/03/04 03:42:56;;;;;;;34.03;26.48;;;29.70;74.60;;;;;;1852737;76;21103;-72
2022/03/04 03:45:27;;;;;;;30.80;26.05;;;29.80;74.30;;;;;;1858977;76;21198;-72
2022/03/04 03:47:57;;;;;;;31.95;25.80;;;29.90;74.10;;;;;;1847658;76;21142;-71
2022/03/04 03:50:27;;;;;;;36.15;26.07;;;30.00;73.10;;;;;;1848712;76;21123;-74
2022/03/04 03:52:58;;;;;;;30.32;25.37;;;30.10;72.70;;;;;;1851557;75;21681;-70
2022/03/04 03:55:29;;;;;;;29.25;25.43;;;30.30;72.10;;;;;;1857859;76;21084;-71
2022/03/04 03:58:00;;;;;;;28.98;24.92;;;30.40;73.50;;;;;;1848528;76;21501;-72
2022/03/04 04:00:31;;;;;;;33.60;24.40;;;30.50;71.60;;;;;;1848498;76;21146;-71
2022/03/04 04:03:02;;;;;;;31.65;23.57;;;30.60;71.00;;;;;;1850610;76;21076;-71
2022/03/04 04:05:32;;;;;;;32.40;25.27;;;30.60;69.40;;;;;;1848409;76;21773;-72
2022/03/04 04:08:03;;;;;;;48.73;25.05;;;30.80;68.50;;;;;;1847142;76;21108;-71
2022/03/04 04:10:34;;;;;;;53.63;25.40;;;30.80;68.00;;;;;;1861292;75;21248;-72
2022/03/04 04:13:05;;;;;;;46.58;26.23;;;30.90;68.90;;;;;;1844158;76;21553;-70
2022/03/04 04:15:35;;;;;;;29.77;24.37;;;31.00;69.10;;;;;;1846235;76;21666;-71
2022/03/04 04:18:06;;;;;;;30.55;22.85;;;31.20;68.20;;;;;;1840310;76;21217;-71
2022/03/04 04:20:37;;;;;;;55.92;25.05;;;31.30;67.80;;;;;;1859773;76;21135;-71
2022/03/04 04:23:07;;;;;;;29.70;23.42;;;31.40;67.60;;;;;;1851973;76;21127;-71
2022/03/04 04:25:38;;;;;;;33.10;25.48;;;31.40;68.40;;;;;;1852479;76;21618;-71
2022/03/04 04:28:09;;;;;;;27.07;24.07;;;31.60;68.10;;;;;;1844990;75;21729;-71
2022/03/04 04:30:39;;;;;;;27.25;23.77;;;31.70;68.60;;;;;;1848528;76;21135;-72
2022/03/04 04:33:10;;;;;;;29.25;23.85;;;31.80;66.50;;;;;;1846821;76;21167;-72
2022/03/04 04:35:41;;;;;;;29.07;23.57;;;31.90;65.50;;;;;;1856287;76;21163;-71
2022/03/04 04:38:12;;;;;;;25.50;21.97;;;32.10;66.70;;;;;;1845442;76;21093;-71
2022/03/04 04:40:42;;;;;;;30.32;24.32;;;32.20;65.10;;;;;;1858523;76;21123;-70
2022/03/04 04:43:13;;;;;;;32.05;24.12;;;32.20;66.10;;;;;;1828190;78;21648;-71
2022/03/04 04:45:44;;;;;;;62.23;25.57;;;32.30;64.80;;;;;;1844409;76;22376;-70
2022/03/04 04:48:15;;;;;;;75.32;26.05;;;32.40;64.60;;;;;;1858673;76;21185;-71
2022/03/04 04:50:46;;;;;;;55.17;22.67;;;32.40;62.70;;;;;;1856227;76;21139;-72
2022/03/04 04:53:16;;;;;;;28.65;22.50;;;32.50;62.60;;;;;;1859907;76;22342;-73
2022/03/04 04:55:47;;;;;;;35.95;22.00;;;32.50;62.40;;;;;;1850244;76;21166;-73
2022/03/04 04:58:18;;;;;;;29.80;23.83;;;32.50;62.90;;;;;;1839115;76;21559;-73
2022/03/04 05:00:53;;;;;;;37.28;24.50;;;32.60;62.40;;;;;;1855934;76;21076;-73
2022/03/04 05:03:22;;;;;;;29.30;24.37;;;32.70;62.90;;;;;;1852502;76;21725;-73
2022/03/04 05:05:54;;;;;;;27.13;23.32;;;32.60;60.40;;;;;;1842715;76;21278;-73
2022/03/04 05:08:26;;;;;;;28.05;22.20;;;32.60;60.60;;;;;;1843876;76;21710;-74
2022/03/04 05:10:59;;;;;;;25.75;22.70;;;32.60;61.20;;;;;;1841476;76;21647;-73
2022/03/04 05:13:29;;;;;;;28.50;22.85;;;32.60;62.30;;;;;;1844987;76;21650;-73
2022/03/04 05:16:00;;;;;;;26.37;22.10;;;32.60;61.10;;;;;;1843987;76;21155;-72
2022/03/04 05:18:32;;;;;;;26.35;23.47;;;32.70;60.50;;;;;;1861172;76;21139;-72
2022/03/04 05:21:04;;;;;;;28.12;24.27;;;32.70;60.50;;;;;;1840283;76;21610;-73
2022/03/04 05:26:06;;;;;;;27.82;23.35;;;32.70;60.90;;;;;;1822900;77;21171;-73
2022/03/04 05:28:37;;;;;;;28.45;21.10;;;32.80;61.50;;;;;;1770309;80;21159;-73
2022/03/04 05:31:08;;;;;;;29.85;22.73;;;32.80;60.60;;;;;;1829892;77;21652;-73
2022/03/04 05:33:39;;;;;;;23.98;21.40;;;32.90;59.80;;;;;;1835446;77;21135;-73
2022/03/04 05:36:14;;;;;;;29.05;20.75;;;32.90;60.30;;;;;;1828196;77;21145;-75
2022/03/04 05:38:45;;;;;;;27.37;21.60;;;33.00;60.20;;;;;;1829570;77;21144;-72
2022/03/04 05:41:17;;;;;;;27.22;20.95;;;33.00;59.90;;;;;;1822410;77;21604;-72
2022/03/04 05:43:49;;;;;;;26.85;21.62;;;33.10;59.70;;;;;;1836926;77;21084;-72
2022/03/04 05:46:20;;;;;;;24.32;20.70;;;33.20;59.40;;;;;;1847848;77;21245;-72
2022/03/04 05:48:51;;;;;;;24.80;21.95;;;33.30;59.50;;;;;;1841978;77;21155;-74
2022/03/04 05:51:22;;;;;;;24.05;20.32;;;33.30;60.00;;;;;;1823055;77;21176;-72
2022/03/04 05:53:53;;;;;;;24.35;21.12;;;33.40;59.90;;;;;;1826411;77;21151;-72
2022/03/04 05:56:24;;;;;;;27.75;20.97;;;33.50;59.30;;;;;;1817377;77;21171;-72
2022/03/04 05:58:55;;;;;;;24.85;21.93;;;33.50;58.90;;;;;;1841808;77;21634;-73
2022/03/04 06:01:26;;;;;;;27.42;22.37;;;33.50;58.30;;;;;;1841321;77;21124;-73
2022/03/04 06:03:58;;;;;;;60.33;48.78;;;33.60;57.90;;;;;;1833308;77;21202;-72
2022/03/04 06:06:28;;;;;;;26.20;21.95;;;33.60;58.20;;;;;;1836590;77;21225;-73
2022/03/04 06:08:59;;;;;;;25.45;20.50;;;33.70;58.50;;;;;;1833410;77;21107;-73
2022/03/04 06:11:30;;;;;;;27.73;21.73;;;33.80;57.70;;;;;;1837542;77;21175;-73
2022/03/04 06:14:02;;;;;;;24.60;19.98;;;33.80;57.30;;;;;;1829762;77;21244;-72
2022/03/04 06:16:32;;;;;;;25.85;20.55;;;33.90;57.50;;;;;;1831896;77;21092;-72
2022/03/04 06:19:03;;;;;;;25.50;20.25;;;34.00;57.20;;;;;;1823245;77;21158;-73
2022/03/04 06:21:34;;;;;;;21.57;19.02;;;34.00;59.00;;;;;;1832424;77;21172;-73
2022/03/04 06:24:05;;;;;;;25.75;20.70;;;34.10;57.80;;;;;;1850375;76;21325;-73
2022/03/04 06:26:36;;;;;;;22.67;20.23;;;34.10;56.20;;;;;;1836688;76;21095;-72
2022/03/04 06:29:06;;;;;;;26.35;19.40;;;34.00;56.20;;;;;;1850466;76;21573;-73
2022/03/04 06:31:37;;;;;;;23.73;19.95;;;34.10;57.10;;;;;;1850022;76;21162;-74
2022/03/04 06:34:08;;;;;;;24.85;20.25;;;34.10;56.00;;;;;;1846881;76;21159;-74
2022/03/04 06:36:38;;;;;;;24.90;18.67;;;34.10;56.90;;;;;;1850593;76;21571;-75
2022/03/04 06:39:09;;;;;;;22.75;18.32;;;34.10;56.70;;;;;;1851253;76;21163;-72
2022/03/04 06:41:40;;;;;;;21.33;18.50;;;34.10;56.20;;;;;;1849725;76;21152;-73
2022/03/04 06:44:11;;;;;;;21.40;18.92;;;34.00;55.50;;;;;;1846344;76;21112;-73
2022/03/04 06:46:42;;;;;;;20.35;18.35;;;34.10;55.30;;;;;;1852316;76;21135;-74
2022/03/04 06:49:13;;;;;;;23.02;19.40;;;34.10;55.00;;;;;;1845667;76;21147;-72
2022/03/04 06:51:44;;;;;;;41.18;21.42;;;34.20;55.10;;;;;;1852861;76;21276;-73
2022/03/04 06:54:15;;;;;;;39.38;20.35;;;34.30;56.60;;;;;;1850317;76;21185;-72
2022/03/04 06:56:45;;;;;;;22.37;18.65;;;34.30;55.40;;;;;;1844999;76;21625;-73
2022/03/04 06:59:16;;;;;;;21.15;18.55;;;34.30;55.30;;;;;;1858277;76;21454;-72
2022/03/04 07:01:47;;;;;;;34.85;19.70;;;34.30;56.30;;;;;;1839934;75;21614;-72
2022/03/04 07:04:18;;;;;;;25.62;19.92;;;34.20;56.50;;;;;;1851868;76;21653;-72
2022/03/04 07:06:49;;;;;;;22.27;18.90;;;34.20;56.40;;;;;;1847516;76;21178;-74
2022/03/04 07:09:19;;;;;;;25.10;21.52;;;34.20;56.40;;;;;;1849046;76;21137;-72
2022/03/04 07:11:51;;;;;;;21.35;18.75;;;34.20;54.80;;;;;;1850051;76;21100;-71
2022/03/04 07:14:22;;;;;;;24.70;17.90;;;34.20;55.30;;;;;;1861140;76;21131;-72
2022/03/04 07:16:52;;;;;;;35.00;20.45;;;34.20;54.60;;;;;;1845143;76;21221;-72
2022/03/04 07:19:23;;;;;;;36.88;19.45;;;34.20;54.30;;;;;;1845147;76;21072;-72
2022/03/04 07:21:53;;;;;;;20.40;18.30;;;34.20;55.30;;;;;;1859474;76;21689;-73
2022/03/04 07:24:24;;;;;;;20.50;18.12;;;34.20;55.10;;;;;;1852749;75;21800;-73
2022/03/04 07:26:56;;;;;;;22.07;18.45;;;34.20;54.10;;;;;;1849954;76;21241;-74
2022/03/04 07:29:27;;;;;;;21.80;18.12;;;34.30;54.30;;;;;;1850387;76;21676;-73
2022/03/04 07:31:58;;;;;;;22.37;18.87;;;34.20;53.90;;;;;;1836016;76;21563;-73
2022/03/04 07:34:29;;;;;;;22.42;18.80;;;34.20;54.00;;;;;;1833493;78;21127;-72
2022/03/04 07:37:00;;;;;;;23.25;19.30;;;34.10;54.30;;;;;;1851637;76;21768;-73
2022/03/04 07:39:31;;;;;;;24.63;19.32;;;34.10;54.30;;;;;;1851900;76;21143;-72
2022/03/04 07:42:01;;;;;;;22.90;19.70;;;34.10;54.60;;;;;;1856455;76;21096;-72
2022/03/04 07:44:32;;;;;;;24.70;19.87;;;34.10;54.90;;;;;;1852115;76;21188;-72
2022/03/04 07:47:04;;;;;;;27.62;20.25;;;34.00;54.50;;;;;;1847537;75;21689;-73
2022/03/04 07:49:34;;;;;;;22.48;19.45;;;34.00;54.10;;;;;;1848420;75;21056;-73
2022/03/04 07:52:05;;;;;;;23.98;19.30;;;34.10;54.20;;;;;;1847230;76;21072;-72
2022/03/04 07:54:37;;;;;;;24.30;20.02;;;34.00;54.00;;;;;;1844082;76;21241;-71
2022/03/04 07:57:08;;;;;;;21.95;18.85;;;34.00;53.90;;;;;;1858146;76;21642;-71
2022/03/04 07:59:39;;;;;;;21.10;18.02;;;33.90;54.70;;;;;;1848910;76;21176;-72
2022/03/04 08:02:09;;;;;;;22.52;20.10;;;33.90;54.30;;;;;;1848134;76;21155;-73
2022/03/04 08:04:40;;;;;;;24.40;19.52;;;33.90;53.80;;;;;;1842040;76;21067;-73
2022/03/04 08:07:11;;;;;;;21.33;18.57;;;33.90;54.30;;;;;;1838815;76;21198;-74
2022/03/04 08:09:42;;;;;;;21.48;18.85;;;33.90;54.60;;;;;;1853535;76;21416;-73
2022/03/04 08:12:13;;;;;;;22.80;19.50;;;33.80;54.50;;;;;;1842815;77;21151;-73
2022/03/04 08:14:44;;;;;;;21.48;19.12;;;33.80;54.70;;;;;;1843759;76;21165;-74
2022/03/04 08:17:15;;;;;;;22.50;20.12;;;33.80;54.10;;;;;;1858381;76;21178;-72
2022/03/04 08:19:46;;;;;;;25.02;20.57;;;33.80;54.40;;;;;;1853992;76;21131;-73
2022/03/04 08:22:18;;;;;;;25.15;19.62;;;33.70;54.70;;;;;;1847715;76;21532;-73
2022/03/04 08:24:50;;;;;;;24.40;19.87;;;33.70;55.30;;;;;;1851983;76;21683;-73
2022/03/04 08:27:22;;;;;;;22.42;19.42;;;33.70;54.30;;;;;;1850821;76;21249;-74
2022/03/04 08:29:53;;;;;;;22.90;20.08;;;33.70;54.70;;;;;;1855519;76;21134;-73
2022/03/04 08:32:23;;;;;;;25.17;20.23;;;33.70;55.00;;;;;;1827033;78;21249;-73
2022/03/04 08:34:56;;;;;;;22.25;19.85;;;33.70;54.40;;;;;;1857027;76;21079;-73
2022/03/04 08:37:26;;;;;;;22.10;19.42;;;33.70;55.10;;;;;;1859352;76;21193;-72
2022/03/04 08:39:58;;;;;;;23.55;21.00;;;33.60;54.60;;;;;;1857007;76;21131;-73
2022/03/04 08:42:30;;;;;;;25.68;20.32;;;33.50;54.60;;;;;;1857165;76;21138;-74
2022/03/04 08:45:01;;;;;;;21.97;19.70;;;33.50;53.70;;;;;;1847782;76;21189;-73
2022/03/04 08:47:31;;;;;;;23.18;20.85;;;33.50;54.30;;;;;;1856166;76;21127;-73
2022/03/04 08:50:02;;;;;;;23.05;20.08;;;33.50;53.40;;;;;;1853177;76;21228;-72
2022/03/04 08:52:34;;;;;;;22.70;20.27;;;33.50;53.30;;;;;;1856541;76;21085;-72
2022/03/04 08:55:14;;;;;;;21.30;19.17;;;33.50;53.50;;;;;;1854712;76;21229;-72
2022/03/04 08:57:38;;;;;;;25.77;21.30;;;33.50;53.10;;;;;;1853419;76;21151;-73
2022/03/04 09:00:10;;;;;;;22.52;20.23;;;33.50;53.40;;;;;;1853842;76;21654;-72
2022/03/04 09:02:41;;;;;;;24.35;20.12;;;33.50;53.40;;;;;;1858679;76;21198;-72
2022/03/04 09:05:12;;;;;;;24.98;21.40;;;33.50;53.20;;;;;;1856633;76;21223;-72
2022/03/04 09:07:43;;;;;;;22.58;20.17;;;33.50;53.30;;;;;;1858514;76;21143;-71
2022/03/04 09:10:14;;;;;;;24.72;22.22;;;33.40;53.40;;;;;;1799881;79;21567;-72
2022/03/04 09:12:45;;;;;;;22.73;20.40;;;33.40;52.80;;;;;;1853749;76;21198;-72
2022/03/04 09:15:16;;;;;;;22.75;20.02;;;33.40;53.30;;;;;;1856929;76;21531;-73
2022/03/04 09:17:47;;;;;;;24.75;19.70;;;33.40;53.50;;;;;;1855802;76;21708;-72
2022/03/04 09:20:19;;;;;;;23.10;20.27;;;33.40;53.10;;;;;;1827984;78;21155;-72
2022/03/04 09:22:51;;;;;;;22.98;19.70;;;33.40;53.00;;;;;;1852489;76;21222;-73
2022/03/04 09:25:22;;;;;;;23.57;20.15;;;33.30;54.00;;;;;;1834030;77;21084;-72
2022/03/04 09:27:53;;;;;;;23.27;20.80;;;33.30;53.10;;;;;;1833995;77;21186;-71
2022/03/04 09:30:25;;;;;;;23.07;20.77;;;33.20;53.20;;;;;;1829315;77;21167;-71
2022/03/04 09:32:56;;;;;;;23.52;20.92;;;33.20;53.30;;;;;;1840218;77;21941;-72
2022/03/04 09:35:27;;;;;;;24.72;21.45;;;33.20;53.50;;;;;;1838682;77;21547;-71
2022/03/04 09:37:58;;;;;;;23.50;21.20;;;33.10;53.20;;;;;;1836689;77;21112;-71
2022/03/04 09:40:29;;;;;;;23.92;21.40;;;33.20;53.20;;;;;;1825128;77;21210;-71
2022/03/04 09:43:01;;;;;;;23.38;20.88;;;33.10;54.20;;;;;;1836377;77;21111;-71
2022/03/04 09:45:32;;;;;;;24.27;21.55;;;33.10;53.20;;;;;;1829280;78;21179;-71
2022/03/04 09:48:04;;;;;;;24.02;20.52;;;33.00;53.20;;;;;;1823758;77;22142;-71
2022/03/04 09:50:36;;;;;;;22.90;20.70;;;33.00;53.40;;;;;;1782171;80;21233;-71
2022/03/04 09:53:27;;;;;;;23.52;20.88;;;33.00;53.70;;;;;;1849757;77;21674;-72
2022/03/04 09:55:58;;;;;;;23.70;21.25;;;33.00;53.80;;;;;;1830900;78;21567;-71
2022/03/04 09:58:28;;;;;;;23.22;20.85;;;32.90;53.40;;;;;;1835364;78;21140;-72
2022/03/04 10:00:59;;;;;;;24.35;21.82;;;32.90;53.30;;;;;;1831132;78;21151;-72
2022/03/04 10:03:30;;;;;;;23.83;21.30;;;32.80;53.40;;;;;;1828579;78;21218;-73
2022/03/04 10:06:01;;;;;;;25.02;22.32;;;32.80;53.50;;;;;;1826426;78;21153;-72
2022/03/04 10:08:35;;;;;;;25.50;22.35;;;32.80;53.30;;;;;;1833000;78;21694;-72
2022/03/04 10:11:07;;;;;;;27.05;23.22;;;32.80;53.50;;;;;;1833586;78;21113;-70
2022/03/04 10:13:40;;;;;;;24.15;21.75;;;32.70;53.50;;;;;;1828515;78;21068;-71
2022/03/04 10:16:13;;;;;;;25.45;22.75;;;32.70;53.50;;;;;;1831843;77;21767;-71
2022/03/04 10:18:44;;;;;;;25.55;22.35;;;32.70;53.70;;;;;;1820872;78;21179;-71
2022/03/04 10:21:14;;;;;;;25.32;22.87;;;32.60;53.70;;;;;;1811022;78;21179;-71
2022/03/04 10:23:45;;;;;;;25.50;22.80;;;32.60;54.00;;;;;;1828426;77;21112;-75
2022/03/04 10:26:16;;;;;;;26.62;23.75;;;32.50;54.30;;;;;;1831586;78;21238;-81
2022/03/04 10:28:49;;;;;;;25.85;23.15;;;32.50;54.70;;;;;;1833885;78;21222;-81
2022/03/04 10:31:20;;;;;;;25.90;22.75;;;32.50;54.70;;;;;;1819946;78;21642;-80
2022/03/04 10:33:55;;;;;;;25.25;22.65;;;32.50;54.50;;;;;;1820877;78;21151;-86
2022/03/04 10:36:27;;;;;;;26.68;23.92;;;32.50;54.70;;;;;;1821223;78;21189;-80
2022/03/04 10:39:00;;;;;;;27.45;23.25;;;32.40;54.50;;;;;;1823875;78;21199;-81
2022/03/04 10:41:35;;;;;;;29.10;23.38;;;32.40;54.70;;;;;;1835229;78;21541;-81
2022/03/04 10:44:05;;;;;;;25.80;23.07;;;32.40;54.80;;;;;;1776977;80;21180;-81
2022/03/04 10:46:39;;;;;;;28.60;24.00;;;32.40;55.70;;;;;;1828010;78;21387;-81
2022/03/04 10:49:09;;;;;;;26.60;23.42;;;32.30;55.10;;;;;;1820698;78;21088;-81
2022/03/04 10:51:41;;;;;;;26.73;23.87;;;32.30;55.20;;;;;;1832574;77;21666;-82
2022/03/04 10:54:13;;;;;;;27.15;24.25;;;32.30;55.30;;;;;;1831458;77;21148;-81
2022/03/04 10:56:46;;;;;;;28.57;23.52;;;32.30;55.40;;;;;;1826273;78;21132;-81
2022/03/04 10:59:17;;;;;;;27.87;24.90;;;32.30;55.60;;;;;;1825695;78;21236;-81
2022/03/04 11:01:49;;;;;;;33.83;24.72;;;32.20;55.70;;;;;;1825094;78;21132;-81
2022/03/04 11:04:22;;;;;;;33.40;24.05;;;32.20;55.70;;;;;;1819726;78;21077;-82
2022/03/04 11:06:57;;;;;;;27.73;24.85;;;32.10;55.70;;;;;;1805127;78;21127;-80
2022/03/04 11:09:28;;;;;;;28.42;24.82;;;32.10;56.00;;;;;;1827476;78;21727;-81
2022/03/04 11:12:02;;;;;;;28.62;24.15;;;32.10;55.90;;;;;;1824710;78;21532;-81
2022/03/04 11:14:33;;;;;;;28.98;24.80;;;32.10;56.00;;;;;;1826733;78;21201;-82
2022/03/04 11:17:04;;;;;;;28.45;25.00;;;32.00;56.50;;;;;;1822656;78;21088;-81
2022/03/04 11:19:36;;;;;;;30.97;26.00;;;31.90;56.70;;;;;;1827064;78;22100;-81
2022/03/04 11:22:10;;;;;;;29.10;25.15;;;31.90;56.80;;;;;;1827567;78;21203;-80
2022/03/04 11:24:41;;;;;;;33.98;25.82;;;31.90;57.00;;;;;;1821154;78;21172;-80
2022/03/04 11:27:15;;;;;;;32.05;25.62;;;31.90;57.20;;;;;;1823911;78;21128;-81
2022/03/04 11:29:47;;;;;;;29.57;26.27;;;31.90;57.30;;;;;;1829805;78;21615;-80
2022/03/04 11:32:18;;;;;;;33.45;25.92;;;31.90;57.40;;;;;;1800970;78;21148;-81
2022/03/04 11:34:49;;;;;;;36.03;26.87;;;31.80;57.50;;;;;;1829537;78;21822;-80
2022/03/04 11:37:22;;;;;;;33.00;26.10;;;31.80;57.70;;;;;;1829863;78;21186;-82
2022/03/04 11:39:55;;;;;;;33.15;26.55;;;31.80;57.80;;;;;;1810362;78;21159;-81
2022/03/04 11:42:28;;;;;;;30.10;26.35;;;31.70;57.90;;;;;;1811239;78;21124;-82
2022/03/04 11:45:00;;;;;;;31.93;27.00;;;31.70;58.10;;;;;;1815420;78;21167;-82
2022/03/04 11:47:32;;;;;;;33.30;28.32;;;31.70;58.20;;;;;;1826065;78;21155;-82
2022/03/04 11:50:05;;;;;;;35.50;27.82;;;31.70;58.40;;;;;;1812021;78;21141;-80
2022/03/04 11:52:38;;;;;;;34.13;27.98;;;31.70;58.50;;;;;;1827147;78;21073;-81
2022/03/04 11:55:12;;;;;;;36.77;31.07;;;31.60;58.30;;;;;;1828247;78;21627;-81
2022/03/04 11:57:45;;;;;;;41.18;33.80;;;31.60;58.30;;;;;;1841000;77;21199;-81
2022/03/04 12:00:16;;;;;;;52.62;37.45;;;31.60;58.60;;;;;;1835796;78;21617;-81
2022/03/04 12:02:51;;;;;;;46.05;35.55;;;31.50;58.70;;;;;;1838060;77;21155;-81
2022/03/04 12:05:31;;;;;;;45.70;32.75;;;31.50;58.70;;;;;;1845072;78;21623;-81
2022/03/04 12:07:54;;;;;;;41.13;34.08;;;31.50;58.80;;;;;;1830484;77;21209;-81
2022/03/04 12:10:27;;;;;;;40.03;33.48;;;31.50;58.90;;;;;;1835836;77;21147;-81
2022/03/04 12:12:59;;;;;;;40.70;33.33;;;31.40;59.10;;;;;;1835332;78;21127;-81
2022/03/04 12:15:31;;;;;;;38.80;33.28;;;31.30;59.40;;;;;;1844939;78;21092;-80
2022/03/04 12:18:04;;;;;;;36.93;31.48;;;31.30;59.40;;;;;;1845369;78;21263;-80
2022/03/04 12:20:37;;;;;;;38.45;31.42;;;31.30;59.60;;;;;;1846688;77;21139;-80
2022/03/04 12:23:10;;;;;;;42.78;35.05;;;31.20;59.60;;;;;;1846284;78;21521;-81
2022/03/04 12:25:43;;;;;;;41.65;35.17;;;31.20;59.90;;;;;;1843709;78;21151;-80
2022/03/04 12:28:16;;;;;;;38.02;33.40;;;31.20;60.20;;;;;;1836868;78;21190;-81
2022/03/04 12:30:49;;;;;;;41.63;33.42;;;31.20;60.60;;;;;;1846657;78;21261;-79
2022/03/04 12:33:22;;;;;;;43.30;33.30;;;31.20;60.60;;;;;;1833182;77;21123;-80
2022/03/04 12:36:01;;;;;;;36.77;32.08;;;31.10;60.90;;;;;;1816632;78;21155;-80
2022/03/04 12:38:28;;;;;;;43.23;33.95;;;31.10;61.50;;;;;;1845319;78;21151;-81
2022/03/04 12:41:00;;;;;;;37.20;31.48;;;31.10;61.50;;;;;;1832281;78;21197;-81
2022/03/04 12:43:30;;;;;;;40.12;32.25;;;31.00;61.40;;;;;;1844241;78;21131;-81
2022/03/04 12:46:01;;;;;;;43.48;33.92;;;31.00;61.70;;;;;;1832932;78;21135;-80
2022/03/04 12:48:32;;;;;;;42.08;33.25;;;31.00;62.10;;;;;;1828823;78;21100;-81
2022/03/04 12:51:05;;;;;;;39.55;33.05;;;31.00;62.50;;;;;;1819756;78;21897;-80
2022/03/04 12:53:36;;;;;;;39.63;33.67;;;30.90;62.70;;;;;;1844992;77;21092;-80